Sycamore Park, Indiana
Current Conditions -  °F | °C
As of 11:53 AM on Thursday 23 Oct 2014 (Local Time) from KHUF Reporting Station
Clear Clear  
Wind Chill: 54°   Ceiling: Unl
Heat Index: 54°   Visibility: 10mi
Dew Point: 44°   Wind: 10mph
Humidity: 69%   Direction: 190°S
Pressure: 30.25"   Gusts: NA
Location:  39.5107°N, 87.4772°W
Report Text: KHUF 231553Z 19009KT 10SM CLR 12/07 A3025 RMK AO2 SLP246 T01220067
Loading
Personal Weather Stations






























Interactive Weather Map New forecast layout! Learn more

10-Day Weather Forecast

Advertisements
Track Severe Weather on mobile